Time;durP1;ratioP1;P1;durP2;ratioP2;P2;SDS_P1;SDS_P2;PMS_P1;PMS_P2;Temp;Humidity;BMP_temperature;BMP_pressure;BME280_temperature;BME280_humidity;BME280_pressure;Samples;Min_cycle;Max_cycle;Signal;HPM_P1;HPM_P2
2021/05/20 00:01:45;;;;;;;1.67;0.87;;;10.00;99.90;;;;;;6197634;23;20395;-96
2021/05/20 00:04:11;;;;;;;2.40;1.33;;;10.00;99.90;;;;;;6202174;23;20394;-96
2021/05/20 00:06:37;;;;;;;1.33;1.13;;;10.00;99.90;;;;;;6197348;23;20217;-95
2021/05/20 00:09:04;;;;;;;1.50;1.20;;;10.00;99.90;;;;;;6196706;23;20394;-96
2021/05/20 00:11:32;;;;;;;2.20;1.50;;;10.00;99.90;;;;;;6194567;23;20237;-89
2021/05/20 00:13:59;;;;;;;1.30;1.00;;;10.00;99.90;;;;;;6190561;23;20436;-90
2021/05/20 00:16:24;;;;;;;2.10;1.30;;;10.00;99.90;;;;;;6217084;23;20832;-91
2021/05/20 00:18:53;;;;;;;1.30;1.20;;;9.90;99.90;;;;;;6220556;23;20378;-91
2021/05/20 00:21:19;;;;;;;1.33;1.23;;;9.90;99.90;;;;;;6219335;23;20161;-91
2021/05/20 00:23:44;;;;;;;1.53;1.00;;;10.00;99.90;;;;;;6191789;23;20860;-91
2021/05/20 00:29:35;;;;;;;1.53;1.30;;;9.90;99.90;;;;;;6222085;23;20152;-95
2021/05/20 00:32:03;;;;;;;1.10;1.00;;;9.90;99.90;;;;;;6169622;23;20429;-95
2021/05/20 00:34:29;;;;;;;1.30;1.20;;;9.90;99.90;;;;;;6199566;23;20390;-96
2021/05/20 00:36:59;;;;;;;2.83;1.50;;;9.80;99.90;;;;;;6195367;23;20385;-96
2021/05/20 00:39:25;;;;;;;1.50;1.07;;;9.80;99.90;;;;;;6189786;23;20401;-96
2021/05/20 00:41:50;;;;;;;1.57;1.30;;;9.80;99.90;;;;;;6190222;23;20645;-93
2021/05/20 00:44:17;;;;;;;1.27;1.17;;;9.90;99.90;;;;;;6190706;23;20394;-92
2021/05/20 00:46:43;;;;;;;3.10;1.30;;;9.80;99.90;;;;;;6189844;23;20561;-92
2021/05/20 00:49:12;;;;;;;2.63;1.80;;;9.80;99.90;;;;;;6190070;23;20485;-91
2021/05/20 00:51:41;;;;;;;1.50;1.40;;;9.70;99.90;;;;;;6189732;23;20186;-91
2021/05/20 00:54:09;;;;;;;1.17;1.07;;;9.70;99.90;;;;;;6189997;23;20468;-92
2021/05/20 00:56:47;;;;;;;1.27;1.17;;;9.70;99.90;;;;;;6189976;23;20402;-92
2021/05/20 01:02:48;;;;;;;1.83;1.07;;;9.60;99.90;;;;;;6159757;23;20455;-92
2021/05/20 01:05:15;;;;;;;2.50;1.30;;;9.50;99.90;;;;;;6188833;23;20402;-93
2021/05/20 01:07:41;;;;;;;2.83;1.40;;;9.40;99.90;;;;;;6192520;23;20406;-94
2021/05/20 01:10:10;;;;;;;1.20;1.10;;;9.30;99.90;;;;;;6189980;23;20473;-92
2021/05/20 01:12:38;;;;;;;1.40;1.27;;;9.30;99.90;;;;;;6189727;23;20781;-93
2021/05/20 01:18:30;;;;;;;1.43;1.10;;;9.30;99.90;;;;;;6125438;23;20408;-93
2021/05/20 01:21:18;;;;;;;1.40;1.27;;;9.20;99.90;;;;;;6104633;23;20497;-93
2021/05/20 01:23:45;;;;;;;1.10;1.00;;;9.10;99.90;;;;;;6215013;23;20432;-92
2021/05/20 01:26:17;;;;;;;1.23;1.13;;;9.20;99.90;;;;;;6188442;23;20427;-94
2021/05/20 01:28:43;;;;;;;1.47;1.10;;;9.10;99.90;;;;;;6188033;23;20198;-93
2021/05/20 01:31:09;;;;;;;0.80;0.80;;;9.10;99.90;;;;;;6188501;23;20752;-93
2021/05/20 01:33:42;;;;;;;1.83;1.60;;;9.10;99.90;;;;;;6188414;23;20191;-89
2021/05/20 01:51:56;;;;;;;1.60;1.33;;;9.00;99.90;;;;;;6185518;23;20427;-91
2021/05/20 01:54:21;;;;;;;1.23;1.13;;;8.90;99.90;;;;;;6159170;23;20404;-89
2021/05/20 01:56:47;;;;;;;3.53;1.10;;;9.00;99.90;;;;;;6158260;23;20156;-89
2021/05/20 01:59:13;;;;;;;2.10;1.37;;;9.00;99.90;;;;;;6158919;23;20174;-89
2021/05/20 02:01:40;;;;;;;1.10;1.10;;;8.90;99.90;;;;;;6157498;23;20180;-89
2021/05/20 02:04:06;;;;;;;1.60;1.50;;;8.90;99.90;;;;;;6158421;23;20168;-89
2021/05/20 02:06:32;;;;;;;1.70;1.23;;;8.80;99.90;;;;;;6158056;23;20447;-88
2021/05/20 02:12:26;;;;;;;1.40;1.30;;;8.80;99.90;;;;;;6186119;23;20369;-88
2021/05/20 02:14:51;;;;;;;1.30;1.20;;;8.70;99.90;;;;;;6158307;23;20726;-87
2021/05/20 02:17:17;;;;;;;1.17;1.10;;;8.70;99.90;;;;;;6158065;23;20388;-88
2021/05/20 02:19:43;;;;;;;1.90;1.20;;;8.70;99.90;;;;;;6157979;23;20160;-88
2021/05/20 02:22:08;;;;;;;1.30;1.10;;;8.70;99.90;;;;;;6158297;23;20172;-87
2021/05/20 02:24:34;;;;;;;1.57;1.27;;;8.70;99.90;;;;;;6157968;23;20175;-86
2021/05/20 02:27:14;;;;;;;4.03;1.17;;;8.60;99.90;;;;;;6159056;23;20525;-90
2021/05/20 02:29:40;;;;;;;1.27;1.17;;;8.60;99.90;;;;;;6184792;23;20151;-90
2021/05/20 02:32:05;;;;;;;1.20;1.10;;;8.60;99.90;;;;;;6159639;23;20479;-91
2021/05/20 02:34:31;;;;;;;1.20;1.10;;;8.60;99.90;;;;;;6159420;23;20164;-90
2021/05/20 02:36:57;;;;;;;1.23;1.00;;;8.60;99.90;;;;;;6159608;23;20156;-92
2021/05/20 02:39:22;;;;;;;1.40;1.30;;;8.50;99.90;;;;;;6159564;23;20283;-91
2021/05/20 02:42:07;;;;;;;1.53;1.43;;;8.40;99.90;;;;;;6159855;23;20170;-89
2021/05/20 02:47:39;;;;;;;1.20;0.90;;;8.40;99.90;;;;;;6184800;23;20459;-90
2021/05/20 02:53:27;;;;;;;1.13;1.10;;;8.50;99.90;;;;;;6185721;23;20403;-91
2021/05/20 02:55:55;;;;;;;1.20;1.10;;;8.50;99.90;;;;;;6184322;23;20388;-90
2021/05/20 02:58:26;;;;;;;1.70;1.10;;;8.60;99.90;;;;;;6157769;23;20703;-91
2021/05/20 03:00:51;;;;;;;2.20;1.00;;;8.60;99.90;;;;;;6158559;23;20396;-89
2021/05/20 03:03:18;;;;;;;1.07;0.97;;;8.50;99.90;;;;;;6157717;23;20407;-89
2021/05/20 03:05:45;;;;;;;1.33;1.10;;;8.40;99.90;;;;;;6158289;23;20705;-89
2021/05/20 03:08:12;;;;;;;1.10;1.00;;;8.40;99.90;;;;;;6184760;23;20388;-90
2021/05/20 03:10:42;;;;;;;1.67;1.27;;;8.50;99.90;;;;;;6158083;23;20465;-90
2021/05/20 03:13:07;;;;;;;2.10;1.10;;;8.50;99.90;;;;;;6156913;23;20387;-89
2021/05/20 03:15:33;;;;;;;1.13;1.10;;;8.50;99.90;;;;;;6159646;23;20892;-88
2021/05/20 03:17:59;;;;;;;3.10;1.20;;;8.60;99.90;;;;;;6161596;23;20172;-89
2021/05/20 03:20:32;;;;;;;2.33;1.00;;;8.60;99.90;;;;;;6161853;23;20235;-89
2021/05/20 03:22:57;;;;;;;1.63;1.20;;;8.50;99.90;;;;;;6161200;23;20538;-90
2021/05/20 03:25:23;;;;;;;0.90;0.90;;;8.50;99.90;;;;;;6160836;23;20394;-89
2021/05/20 03:28:24;;;;;;;1.57;1.33;;;8.50;99.90;;;;;;6162403;23;20185;-90
2021/05/20 03:30:50;;;;;;;2.63;0.90;;;8.60;99.90;;;;;;6160967;23;20206;-90
2021/05/20 03:33:15;;;;;;;0.90;0.90;;;8.60;99.90;;;;;;6187617;23;20850;-90
2021/05/20 03:36:11;;;;;;;1.27;0.83;;;8.50;99.90;;;;;;6161611;23;20157;-90
2021/05/20 03:38:37;;;;;;;1.17;1.00;;;8.50;99.90;;;;;;6155420;23;20195;-89
2021/05/20 03:41:05;;;;;;;1.40;1.20;;;8.50;99.90;;;;;;6160911;23;20406;-90
2021/05/20 03:43:32;;;;;;;0.87;0.87;;;8.50;99.90;;;;;;6160642;23;20155;-89
2021/05/20 03:46:00;;;;;;;0.57;0.57;;;8.50;99.90;;;;;;6164679;23;20442;-90
2021/05/20 03:48:26;;;;;;;1.00;0.97;;;8.60;99.90;;;;;;6185560;23;20397;-89
2021/05/20 03:51:00;;;;;;;1.07;0.83;;;8.60;99.90;;;;;;6185846;23;20494;-92
2021/05/20 04:28:59;;;;;;;1.70;1.27;;;8.40;99.90;;;;;;6187144;23;20436;-96
2021/05/20 04:31:25;;;;;;;1.10;1.10;;;8.50;99.90;;;;;;6162561;23;20473;-93
2021/05/20 04:33:53;;;;;;;2.20;1.50;;;8.50;99.90;;;;;;6163345;23;20443;-93
2021/05/20 04:36:19;;;;;;;1.10;1.00;;;8.60;99.90;;;;;;6166997;23;20157;-95
2021/05/20 04:38:47;;;;;;;1.37;1.27;;;8.60;99.90;;;;;;6164995;23;20392;-94
2021/05/20 04:41:22;;;;;;;1.57;1.03;;;8.60;99.90;;;;;;6167247;23;20155;-94
2021/05/20 04:44:00;;;;;;;1.90;1.30;;;8.70;99.90;;;;;;6163120;23;20474;-87
2021/05/20 04:46:35;;;;;;;1.30;1.20;;;8.80;99.90;;;;;;6160075;23;20436;-88
2021/05/20 04:49:11;;;;;;;1.50;1.40;;;8.90;99.90;;;;;;6161341;23;20813;-88
2021/05/20 04:51:38;;;;;;;1.33;1.23;;;8.90;99.90;;;;;;6160262;23;20383;-88
2021/05/20 05:00:02;;;;;;;1.80;1.30;;;8.90;99.90;;;;;;6186759;23;20391;-96
2021/05/20 05:02:27;;;;;;;1.40;1.30;;;8.80;99.90;;;;;;6136352;23;20389;-93
2021/05/20 05:05:02;;;;;;;1.70;1.60;;;8.80;99.90;;;;;;6161662;23;20411;-94
2021/05/20 05:07:28;;;;;;;2.10;1.33;;;8.80;99.90;;;;;;6135874;23;20234;-92
2021/05/20 05:09:54;;;;;;;1.50;1.40;;;8.80;99.90;;;;;;6162946;23;20384;-94
2021/05/20 05:15:45;;;;;;;3.00;2.10;;;9.00;99.90;;;;;;6192043;23;20203;-95
2021/05/20 05:18:22;;;;;;;1.77;1.30;;;8.90;99.90;;;;;;6164809;23;20388;-96
2021/05/20 05:20:58;;;;;;;2.60;1.50;;;9.00;99.90;;;;;;6139311;23;20443;-95
2021/05/20 05:23:29;;;;;;;1.50;1.40;;;9.10;99.90;;;;;;6164294;23;20392;-96
2021/05/20 05:29:18;;;;;;;1.33;1.23;;;9.10;99.90;;;;;;6155090;23;20416;-96
2021/05/20 05:32:05;;;;;;;8.37;2.47;;;9.20;99.90;;;;;;6164767;23;20412;-94
2021/05/20 05:37:06;;;;;;;5.57;2.20;;;9.10;99.90;;;;;;6192842;22;20456;-90
2021/05/20 05:39:32;;;;;;;11.07;2.43;;;9.10;99.90;;;;;;6218637;23;20394;-90
2021/05/20 05:41:58;;;;;;;7.30;2.17;;;9.20;99.90;;;;;;6218500;23;21639;-89
2021/05/20 05:44:24;;;;;;;7.00;1.63;;;9.30;99.90;;;;;;6218314;23;20786;-93
2021/05/20 05:47:00;;;;;;;22.47;4.73;;;9.50;99.90;;;;;;6219679;23;20197;-92
2021/05/20 05:49:28;;;;;;;29.53;4.30;;;9.60;99.90;;;;;;6219406;23;20587;-89
2021/05/20 05:52:03;;;;;;;90.93;8.13;;;9.90;99.90;;;;;;6220476;23;20464;-96
2021/05/20 05:54:30;;;;;;;88.93;15.73;;;9.90;99.90;;;;;;6231788;22;20426;-94
2021/05/20 05:56:56;;;;;;;30.27;5.40;;;9.90;99.90;;;;;;6232659;23;20466;-95
2021/05/20 05:59:21;;;;;;;14.47;2.60;;;10.00;99.90;;;;;;6224415;23;20395;-88
2021/05/20 06:05:10;;;;;;;64.50;6.87;;;10.10;99.90;;;;;;6245082;23;20216;-89
2021/05/20 06:07:45;;;;;;;14.37;2.93;;;10.30;99.90;;;;;;6218380;23;20767;-92
2021/05/20 06:13:33;;;;;;;2.70;1.00;;;10.10;99.90;;;;;;6251464;23;20768;-96
2021/05/20 06:16:00;;;;;;;4.13;1.20;;;10.10;99.90;;;;;;6226182;23;20396;-95
2021/05/20 06:21:53;;;;;;;1.00;1.00;;;10.10;99.90;;;;;;6265452;23;20390;-95
2021/05/20 06:27:40;;;;;;;2.37;1.57;;;10.50;99.90;;;;;;6251612;23;20487;-96
2021/05/20 06:33:28;;;;;;;0.80;0.80;;;10.50;99.90;;;;;;6248760;23;20535;-89
2021/05/20 06:35:54;;;;;;;1.50;1.40;;;10.40;99.90;;;;;;6220748;23;20398;-89
2021/05/20 06:41:41;;;;;;;1.30;0.93;;;10.70;99.90;;;;;;6246184;23;20168;-92
2021/05/20 06:47:29;;;;;;;1.20;1.07;;;10.90;99.90;;;;;;6245582;23;20200;-93
2021/05/20 06:50:05;;;;;;;4.60;1.20;;;11.20;99.90;;;;;;6245788;22;20385;-93
2021/05/20 06:56:17;;;;;;;0.97;0.97;;;11.50;99.90;;;;;;6250589;23;20373;-93
2021/05/20 07:05:13;;;;;;;1.07;1.00;;;11.40;99.90;;;;;;6157847;23;20395;-95
2021/05/20 07:11:00;;;;;;;1.20;1.10;;;11.30;99.90;;;;;;6154471;23;20471;-92
2021/05/20 07:13:26;;;;;;;2.47;1.27;;;11.50;99.90;;;;;;6129741;23;20416;-92
2021/05/20 07:15:52;;;;;;;1.17;1.17;;;11.50;99.90;;;;;;6160460;23;20163;-93
2021/05/20 07:18:18;;;;;;;0.80;0.80;;;11.50;99.90;;;;;;6245420;23;20244;-94
2021/05/20 07:20:44;;;;;;;2.13;1.20;;;11.40;99.90;;;;;;6245946;23;20628;-94
2021/05/20 07:26:39;;;;;;;1.07;1.00;;;11.60;99.90;;;;;;6236610;22;20541;-92
2021/05/20 07:29:06;;;;;;;1.40;1.30;;;11.40;99.90;;;;;;6176497;23;20419;-91
2021/05/20 07:31:46;;;;;;;3.20;1.17;;;11.40;99.90;;;;;;6148146;23;20469;-87
2021/05/20 07:34:12;;;;;;;1.00;1.00;;;11.80;99.90;;;;;;6175560;23;20399;-89
2021/05/20 07:36:38;;;;;;;3.80;0.80;;;12.10;99.90;;;;;;6175101;23;20909;-87
2021/05/20 07:39:17;;;;;;;1.60;1.07;;;12.60;99.90;;;;;;6176675;23;20410;-89
2021/05/20 07:41:52;;;;;;;1.90;1.13;;;12.80;99.90;;;;;;6173172;23;20522;-89
2021/05/20 07:44:21;;;;;;;1.70;0.97;;;12.80;99.90;;;;;;6155440;23;20400;-93
2021/05/20 07:46:54;;;;;;;0.80;0.80;;;12.80;99.90;;;;;;6189741;23;20434;-96
2021/05/20 07:49:31;;;;;;;2.73;0.90;;;12.80;99.90;;;;;;6222635;22;20489;-96
2021/05/20 07:52:08;;;;;;;0.90;0.90;;;12.40;99.90;;;;;;6221781;23;20918;-95
2021/05/20 07:54:34;;;;;;;3.77;1.23;;;12.10;99.90;;;;;;6206400;23;20399;-96
2021/05/20 07:57:06;;;;;;;1.70;1.60;;;12.10;99.90;;;;;;6211869;23;20880;-96
2021/05/20 07:59:32;;;;;;;1.00;0.93;;;12.30;99.90;;;;;;6216866;23;20180;-94
2021/05/20 08:05:07;;;;;;;1.73;1.00;;;12.50;99.90;;;;;;6210722;23;20226;-94
2021/05/20 08:07:58;;;;;;;3.03;1.17;;;12.70;99.90;;;;;;6212434;23;20453;-93
2021/05/20 08:13:49;;;;;;;1.53;1.43;;;12.90;99.90;;;;;;6217923;23;20923;-92
2021/05/20 08:16:15;;;;;;;0.83;0.83;;;13.10;99.90;;;;;;6208205;23;20399;-92
2021/05/20 08:18:53;;;;;;;1.20;1.10;;;13.40;99.90;;;;;;6213814;22;20402;-95
2021/05/20 08:24:19;;;;;;;1.50;0.93;;;13.90;99.90;;;;;;6216547;23;20395;-93
2021/05/20 08:26:49;;;;;;;1.67;1.57;;;13.30;99.90;;;;;;6215228;23;20470;-96
2021/05/20 08:29:15;;;;;;;1.27;1.17;;;13.50;99.90;;;;;;6209106;23;20402;-91
2021/05/20 08:31:43;;;;;;;1.33;0.97;;;13.50;99.90;;;;;;6211473;23;20482;-94
2021/05/20 08:34:18;;;;;;;1.40;1.10;;;13.40;99.90;;;;;;6208683;23;20456;-90
2021/05/20 08:36:44;;;;;;;0.83;0.83;;;13.00;99.90;;;;;;6202985;23;20394;-93
2021/05/20 08:39:17;;;;;;;2.67;1.10;;;12.50;99.90;;;;;;6205170;23;20505;-93
2021/05/20 08:41:46;;;;;;;1.00;1.00;;;12.50;99.90;;;;;;6208444;23;20397;-93
2021/05/20 08:44:25;;;;;;;1.77;0.90;;;12.50;99.90;;;;;;6205059;23;20651;-89
2021/05/20 09:04:09;;;;;;;0.87;0.70;;;13.20;99.90;;;;;;6148448;23;20401;-92
2021/05/20 09:06:53;;;;;;;4.10;0.83;;;14.10;99.90;;;;;;6151167;23;20574;-94
2021/05/20 09:09:26;;;;;;;1.10;0.53;;;14.30;99.90;;;;;;6143052;23;20431;-88
2021/05/20 09:11:54;;;;;;;1.23;0.83;;;14.60;99.90;;;;;;6143779;23;20738;-90
2021/05/20 09:14:42;;;;;;;0.80;0.80;;;14.10;99.90;;;;;;6120829;23;20396;-88
2021/05/20 09:17:33;;;;;;;1.13;0.90;;;13.60;99.90;;;;;;6150062;23;20459;-90
2021/05/20 09:20:02;;;;;;;0.70;0.70;;;13.30;99.90;;;;;;6119113;23;20408;-92
2021/05/20 09:22:35;;;;;;;1.50;0.80;;;13.10;99.90;;;;;;6122583;23;20453;-92
2021/05/20 09:25:10;;;;;;;0.93;0.83;;;13.10;99.90;;;;;;6113484;23;20829;-90
2021/05/20 09:28:06;;;;;;;1.37;1.00;;;13.20;99.90;;;;;;6120190;23;20631;-91
2021/05/20 09:41:19;;;;;;;1.60;0.70;;;14.30;99.90;;;;;;6252714;22;20488;-95
2021/05/20 09:43:47;;;;;;;1.90;0.77;;;14.30;99.90;;;;;;6246179;23;20394;-96
2021/05/20 13:40:55;;;;;;;0.60;0.60;;;19.70;82.30;;;;;;6161209;23;20447;-95
2021/05/20 13:46:23;;;;;;;0.60;0.57;;;19.00;76.80;;;;;;6182095;22;20424;-96
2021/05/20 15:14:42;;;;;;;1.10;1.00;;;16.30;89.20;;;;;;6192235;23;20447;-95
2021/05/20 15:17:15;;;;;;;1.10;1.00;;;16.30;89.10;;;;;;6169329;23;20419;-96
2021/05/20 15:19:44;;;;;;;2.77;1.50;;;16.80;90.10;;;;;;6171941;23;20391;-96
2021/05/20 15:25:03;;;;;;;0.93;0.93;;;17.40;82.60;;;;;;6242944;22;20444;-96
2021/05/20 15:27:37;;;;;;;0.80;0.80;;;18.30;81.40;;;;;;6252290;22;20495;-96
2021/05/20 15:30:05;;;;;;;0.80;0.80;;;17.90;82.80;;;;;;6243201;22;20381;-96
2021/05/20 15:32:30;;;;;;;2.00;0.90;;;18.10;83.80;;;;;;6237242;23;20406;-95
2021/05/20 15:35:23;;;;;;;2.77;1.10;;;17.60;84.30;;;;;;6239178;23;20404;-96
2021/05/20 15:37:53;;;;;;;1.17;1.00;;;18.90;82.20;;;;;;6250176;23;20163;-96
2021/05/20 15:40:26;;;;;;;1.00;1.00;;;20.10;75.20;;;;;;6250849;22;20397;-96
2021/05/20 15:42:52;;;;;;;2.00;1.10;;;21.50;68.40;;;;;;6246183;22;20416;-96
2021/05/20 15:45:21;;;;;;;1.60;0.80;;;22.30;63.40;;;;;;6257588;23;20402;-95
2021/05/20 15:48:21;;;;;;;2.50;0.80;;;21.10;59.00;;;;;;6241486;22;20441;-96
2021/05/20 15:50:48;;;;;;;1.20;1.10;;;21.00;62.40;;;;;;6257689;22;20435;-95
2021/05/20 15:53:15;;;;;;;0.90;0.70;;;22.20;63.30;;;;;;6232027;23;20721;-95
2021/05/20 15:55:41;;;;;;;0.83;0.83;;;22.40;59.00;;;;;;6228740;23;20464;-94
2021/05/20 15:58:06;;;;;;;0.80;0.80;;;22.40;56.80;;;;;;6232508;23;20887;-92
2021/05/20 16:00:43;;;;;;;4.97;1.30;;;20.80;59.50;;;;;;6254264;22;20166;-91
2021/05/20 16:42:41;;;;;;;2.50;1.27;;;19.40;67.40;;;;;;6233085;22;20907;-96
2021/05/20 16:45:07;;;;;;;1.70;1.27;;;19.10;66.90;;;;;;6231806;23;20405;-93
2021/05/20 16:47:57;;;;;;;1.00;1.00;;;18.80;68.20;;;;;;6231375;23;20445;-94
2021/05/20 16:50:23;;;;;;;2.80;2.20;;;18.40;70.30;;;;;;6214188;23;20939;-95
2021/05/20 16:52:55;;;;;;;2.20;1.20;;;18.50;71.20;;;;;;6241224;23;20989;-96
2021/05/20 16:55:45;;;;;;;1.37;1.27;;;18.10;71.70;;;;;;6245497;22;20585;-96
2021/05/20 17:00:34;;;;;;;1.40;1.30;;;18.00;72.20;;;;;;6228946;23;21284;-94
2021/05/20 17:03:00;;;;;;;1.43;1.00;;;18.00;74.10;;;;;;6224346;23;20448;-94
2021/05/20 17:05:29;;;;;;;1.30;1.20;;;18.00;72.20;;;;;;6228007;23;20255;-94
2021/05/20 17:07:54;;;;;;;2.77;1.13;;;17.50;72.90;;;;;;6227397;23;20732;-92
2021/05/20 17:10:20;;;;;;;1.17;0.90;;;17.30;75.40;;;;;;6227932;23;20426;-94
2021/05/20 17:12:47;;;;;;;5.93;1.30;;;17.20;75.10;;;;;;6229540;23;20199;-94
2021/05/20 17:15:14;;;;;;;5.27;2.03;;;16.70;75.70;;;;;;6230653;23;20715;-95
2021/05/20 17:17:40;;;;;;;2.60;2.40;;;16.50;76.80;;;;;;6235100;23;20395;-93
2021/05/20 17:20:09;;;;;;;2.27;1.67;;;16.30;77.20;;;;;;6249279;23;20378;-94
2021/05/20 17:22:36;;;;;;;1.93;1.77;;;16.20;78.50;;;;;;6246597;23;20481;-92
2021/05/20 17:25:03;;;;;;;2.50;1.67;;;16.10;80.00;;;;;;6231526;23;20404;-94
2021/05/20 17:27:29;;;;;;;1.47;1.37;;;15.90;80.80;;;;;;6228904;23;20745;-94
2021/05/20 17:29:56;;;;;;;1.23;1.13;;;15.90;80.50;;;;;;6245372;22;20535;-95
2021/05/20 17:32:41;;;;;;;4.57;1.60;;;15.80;80.90;;;;;;6245424;22;20171;-93
2021/05/20 17:35:11;;;;;;;2.00;1.60;;;15.70;82.70;;;;;;6231843;23;20398;-93
2021/05/20 17:37:38;;;;;;;2.70;1.70;;;15.80;80.90;;;;;;6235278;23;21044;-95
2021/05/20 17:40:14;;;;;;;1.57;1.47;;;15.60;82.20;;;;;;6236247;23;20398;-95
2021/05/20 17:42:40;;;;;;;1.10;1.10;;;15.50;81.10;;;;;;6240264;23;20443;-95
2021/05/20 17:45:06;;;;;;;1.47;1.37;;;15.50;81.80;;;;;;6237069;23;20393;-96
2021/05/20 17:47:38;;;;;;;1.33;1.20;;;15.40;81.60;;;;;;6241305;23;20528;-96
2021/05/20 19:41:40;;;;;;;1.80;1.70;;;12.70;99.90;;;;;;6209452;23;20776;-95
2021/05/20 19:44:09;;;;;;;1.70;1.47;;;12.80;99.90;;;;;;6189073;23;20398;-96
2021/05/20 19:46:54;;;;;;;1.50;1.40;;;12.70;99.90;;;;;;6198676;23;20442;-96
2021/05/20 19:49:44;;;;;;;1.33;1.27;;;12.70;99.90;;;;;;6211432;23;20404;-96
2021/05/20 19:52:23;;;;;;;2.80;2.10;;;12.60;99.90;;;;;;6183581;23;20752;-96
2021/05/20 19:55:38;;;;;;;2.03;1.83;;;12.50;99.90;;;;;;6181263;23;20438;-96
2021/05/20 20:28:42;;;;;;;2.00;1.90;;;11.70;99.90;;;;;;6208480;23;20403;-92
2021/05/20 20:31:07;;;;;;;2.57;2.10;;;11.70;99.90;;;;;;6165048;23;20472;-92
2021/05/20 20:33:49;;;;;;;3.17;1.77;;;11.80;99.90;;;;;;6187207;23;20526;-93
2021/05/20 20:36:21;;;;;;;3.80;1.83;;;11.80;99.90;;;;;;6176346;23;20163;-93
2021/05/20 20:41:33;;;;;;;1.90;1.60;;;11.80;99.90;;;;;;6203538;23;20771;-95
2021/05/20 20:43:59;;;;;;;2.20;2.00;;;11.80;99.90;;;;;;6177795;23;20442;-94
2021/05/20 20:46:27;;;;;;;1.80;1.70;;;11.80;99.90;;;;;;6177594;23;20486;-91
2021/05/20 20:48:56;;;;;;;1.77;1.67;;;11.80;99.90;;;;;;6178751;23;20438;-90
2021/05/20 20:51:25;;;;;;;2.00;1.90;;;11.80;99.90;;;;;;6202535;23;20461;-91
2021/05/20 20:54:02;;;;;;;1.63;1.43;;;11.90;99.90;;;;;;6176489;23;20456;-91
2021/05/20 20:56:32;;;;;;;2.80;2.13;;;11.90;99.90;;;;;;6177941;23;20415;-91
2021/05/20 20:58:59;;;;;;;2.20;2.00;;;11.90;99.90;;;;;;6177640;23;20391;-92
2021/05/20 21:01:25;;;;;;;5.70;2.50;;;11.90;99.90;;;;;;6178320;23;20439;-92
2021/05/20 21:03:55;;;;;;;3.60;2.40;;;11.90;99.90;;;;;;6203836;23;20726;-92
2021/05/20 21:06:25;;;;;;;2.23;2.13;;;12.00;99.90;;;;;;6178558;23;20499;-93
2021/05/20 21:09:02;;;;;;;2.20;2.00;;;11.90;99.90;;;;;;6178355;23;20473;-92
2021/05/20 21:11:46;;;;;;;2.20;2.00;;;11.80;99.90;;;;;;6206073;23;20398;-91
2021/05/20 21:14:18;;;;;;;2.10;2.00;;;11.70;99.90;;;;;;6201698;23;20402;-90
2021/05/20 21:16:44;;;;;;;2.57;2.27;;;11.60;99.90;;;;;;6177780;23;20160;-89
2021/05/20 21:19:11;;;;;;;1.97;1.87;;;11.60;99.90;;;;;;6177022;23;20478;-91
2021/05/20 21:21:37;;;;;;;3.93;2.07;;;11.60;99.90;;;;;;6205040;23;20486;-91
2021/05/20 21:24:04;;;;;;;2.07;1.90;;;11.60;99.90;;;;;;6177370;23;20406;-91
2021/05/20 21:26:30;;;;;;;2.23;2.03;;;11.40;99.90;;;;;;6204828;23;20242;-92
2021/05/20 21:28:55;;;;;;;2.37;2.23;;;11.30;99.90;;;;;;6176521;23;20395;-91
2021/05/20 21:31:21;;;;;;;2.50;2.30;;;11.20;99.90;;;;;;6178198;23;20190;-91
2021/05/20 21:34:10;;;;;;;2.60;2.10;;;11.10;99.90;;;;;;6179066;23;20160;-91
2021/05/20 21:36:39;;;;;;;2.10;2.00;;;10.90;99.90;;;;;;6200755;23;20167;-92
2021/05/20 21:39:05;;;;;;;2.57;2.33;;;10.90;99.90;;;;;;6178497;23;20407;-91
2021/05/20 21:41:31;;;;;;;2.40;2.20;;;10.90;99.90;;;;;;6205169;23;20386;-91
2021/05/20 21:43:56;;;;;;;2.47;2.27;;;10.90;99.90;;;;;;6178224;23;20402;-92
2021/05/20 21:46:22;;;;;;;2.37;2.07;;;10.90;99.90;;;;;;6178383;23;20203;-89
2021/05/20 21:48:48;;;;;;;3.07;2.20;;;10.90;99.90;;;;;;6200047;23;20203;-91
2021/05/20 21:51:13;;;;;;;2.03;1.93;;;10.80;99.90;;;;;;6177667;23;20223;-90
2021/05/20 21:53:39;;;;;;;3.23;2.13;;;10.60;99.90;;;;;;6175631;23;20191;-93
2021/05/20 21:56:12;;;;;;;1.70;1.60;;;10.50;99.90;;;;;;6181100;23;20176;-96
2021/05/20 21:58:38;;;;;;;2.37;2.20;;;10.60;99.90;;;;;;6211285;23;20174;-95
2021/05/20 22:01:06;;;;;;;2.10;1.80;;;10.60;99.90;;;;;;6185367;23;20429;-95
2021/05/20 22:03:32;;;;;;;2.10;1.97;;;10.60;99.90;;;;;;6180377;23;20537;-93
2021/05/20 22:05:58;;;;;;;2.50;2.30;;;10.60;99.90;;;;;;6179651;23;20623;-95
2021/05/20 22:08:25;;;;;;;2.53;2.33;;;10.70;99.90;;;;;;6180616;23;20485;-96
2021/05/20 22:15:48;;;;;;;2.77;2.10;;;10.60;99.90;;;;;;6204228;23;20999;-91
2021/05/20 22:18:34;;;;;;;1.97;1.87;;;10.50;99.90;;;;;;6177671;23;20233;-92
2021/05/20 22:21:00;;;;;;;2.10;2.00;;;10.40;99.90;;;;;;6175765;23;20237;-93
2021/05/20 22:23:26;;;;;;;2.17;1.97;;;10.40;99.90;;;;;;6175517;23;20402;-93
2021/05/20 22:26:00;;;;;;;2.13;1.90;;;10.30;99.90;;;;;;6204002;23;20226;-96
2021/05/20 22:28:35;;;;;;;2.00;1.90;;;10.30;99.90;;;;;;6204975;23;21263;-90
2021/05/20 22:31:17;;;;;;;2.60;2.27;;;10.30;99.90;;;;;;6178115;23;20429;-91
2021/05/20 22:33:45;;;;;;;2.33;2.17;;;10.30;99.90;;;;;;6203231;23;20876;-90
2021/05/20 22:36:11;;;;;;;2.40;2.20;;;10.20;99.90;;;;;;6152982;23;20409;-90
2021/05/20 22:38:36;;;;;;;5.90;2.43;;;10.30;99.90;;;;;;6178676;23;20395;-90
2021/05/20 22:41:02;;;;;;;2.50;2.00;;;10.30;99.90;;;;;;6202137;23;20271;-90
2021/05/20 22:43:28;;;;;;;4.27;2.77;;;10.20;99.90;;;;;;6176808;23;20174;-90
2021/05/20 22:45:53;;;;;;;2.67;2.47;;;10.20;99.90;;;;;;6176429;23;20171;-91
2021/05/20 22:48:19;;;;;;;2.70;2.53;;;10.20;99.90;;;;;;6177919;23;20178;-89
2021/05/20 22:50:45;;;;;;;3.83;2.57;;;10.30;99.90;;;;;;6176849;23;20168;-90
2021/05/20 22:53:10;;;;;;;3.20;3.00;;;10.30;99.90;;;;;;6176646;23;20160;-90
2021/05/20 22:55:36;;;;;;;3.13;2.40;;;10.40;99.90;;;;;;6177003;23;20964;-90
2021/05/20 22:58:03;;;;;;;2.80;2.60;;;10.40;99.90;;;;;;6177487;23;20697;-91
2021/05/20 23:00:29;;;;;;;3.07;2.77;;;10.30;99.90;;;;;;6178084;23;20599;-90
2021/05/20 23:02:57;;;;;;;2.93;2.60;;;10.40;99.90;;;;;;6177348;23;20443;-91
2021/05/20 23:05:24;;;;;;;2.97;2.67;;;10.40;99.90;;;;;;6177344;23;20187;-90
2021/05/20 23:07:50;;;;;;;2.67;2.40;;;10.30;99.90;;;;;;6177804;23;20453;-91
2021/05/20 23:10:17;;;;;;;2.90;2.70;;;10.20;99.90;;;;;;6177778;23;20386;-90
2021/05/20 23:12:43;;;;;;;2.83;2.63;;;10.10;99.90;;;;;;6177209;23;20712;-90
2021/05/20 23:15:09;;;;;;;2.60;2.40;;;10.00;99.90;;;;;;6176206;23;20477;-90
2021/05/20 23:17:35;;;;;;;2.93;2.63;;;9.90;99.90;;;;;;6176629;23;20409;-90
2021/05/20 23:20:00;;;;;;;2.73;2.60;;;9.90;99.90;;;;;;6177545;23;20481;-90
2021/05/20 23:22:26;;;;;;;2.47;2.27;;;10.00;99.90;;;;;;6176769;23;20182;-90
2021/05/20 23:24:52;;;;;;;2.60;2.40;;;10.00;99.90;;;;;;6177578;23;20595;-90
2021/05/20 23:27:18;;;;;;;3.17;2.80;;;10.00;99.90;;;;;;6176955;23;20231;-91
2021/05/20 23:29:43;;;;;;;2.33;2.07;;;10.00;99.90;;;;;;6177263;23;20164;-91
2021/05/20 23:32:09;;;;;;;3.07;2.60;;;10.00;99.90;;;;;;6178231;23;20901;-91
2021/05/20 23:34:35;;;;;;;2.67;2.33;;;9.90;99.90;;;;;;6179051;23;20159;-91
2021/05/20 23:37:00;;;;;;;2.70;2.50;;;9.90;99.90;;;;;;6179756;23;20164;-92
2021/05/20 23:39:26;;;;;;;2.30;2.10;;;9.90;99.90;;;;;;6179901;23;20164;-91
2021/05/20 23:41:56;;;;;;;2.53;2.27;;;9.90;99.90;;;;;;6179096;23;20266;-93
2021/05/20 23:44:21;;;;;;;2.20;2.10;;;9.90;99.90;;;;;;6175684;23;20618;-92
2021/05/20 23:46:47;;;;;;;2.33;2.13;;;9.90;99.90;;;;;;6178292;23;20442;-91
2021/05/20 23:49:17;;;;;;;2.30;2.20;;;10.00;99.90;;;;;;6177468;23;20164;-92
2021/05/20 23:51:48;;;;;;;3.40;2.53;;;9.90;99.90;;;;;;6179469;23;20671;-92
2021/05/20 23:54:15;;;;;;;3.27;2.70;;;9.80;99.90;;;;;;6174153;23;20395;-91
2021/05/20 23:56:41;;;;;;;2.40;2.20;;;9.80;99.90;;;;;;6163052;23;20417;-91
2021/05/20 23:59:07;;;;;;;2.33;2.13;;;9.70;99.90;;;;;;6174918;23;20834;-91
